createdAt,value
2018-09-10T00:01:50.294Z,3.43
2018-09-10T00:04:19.414Z,3.27
2018-09-10T00:06:48.587Z,3.13
2018-09-10T00:09:17.722Z,3.10
2018-09-10T00:11:46.916Z,3.20
2018-09-10T00:14:16.112Z,3.17
2018-09-10T00:16:45.415Z,3.67
2018-09-10T00:19:15.241Z,3.30
2018-09-10T00:21:44.577Z,3.07
2018-09-10T00:24:13.681Z,3.40
2018-09-10T00:26:42.807Z,3.27
2018-09-10T00:29:11.990Z,3.93
2018-09-10T00:31:41.120Z,3.90
2018-09-10T00:34:10.184Z,3.20
2018-09-10T00:36:39.832Z,3.53
2018-09-10T00:39:12.301Z,3.50
2018-09-10T00:41:41.380Z,3.63
2018-09-10T00:44:10.704Z,2.83
2018-09-10T00:46:40.105Z,2.77
2018-09-10T00:49:09.719Z,4.07
2018-09-10T00:51:38.926Z,2.60
2018-09-10T00:54:07.976Z,3.47
2018-09-10T00:56:37.071Z,3.40
2018-09-10T00:59:06.315Z,3.63
2018-09-10T01:01:35.396Z,3.47
2018-09-10T01:04:04.520Z,3.30
2018-09-10T01:06:33.679Z,3.50
2018-09-10T01:09:02.826Z,2.70
2018-09-10T01:11:31.993Z,3.27
2018-09-10T01:14:01.079Z,2.87
2018-09-10T01:16:30.146Z,3.47
2018-09-10T01:18:59.249Z,3.60
2018-09-10T01:21:28.462Z,3.30
2018-09-10T01:23:58.705Z,2.83
2018-09-10T01:26:27.939Z,3.23
2018-09-10T01:28:57.120Z,3.83
2018-09-10T01:31:26.405Z,3.47
2018-09-10T01:34:01.589Z,3.70
2018-09-10T01:36:30.668Z,3.93
2018-09-10T01:39:00.010Z,3.50
2018-09-10T01:41:29.187Z,3.20
2018-09-10T01:43:58.409Z,3.67
2018-09-10T01:46:27.551Z,3.47
2018-09-10T01:48:56.687Z,3.30
2018-09-10T01:51:25.793Z,4.10
2018-09-10T01:53:54.868Z,4.10
2018-09-10T01:56:24.085Z,3.40
2018-09-10T01:58:53.738Z,3.40
2018-09-10T02:01:22.893Z,3.13
2018-09-10T02:03:52.007Z,3.20
2018-09-10T02:06:21.414Z,3.83
2018-09-10T02:08:50.479Z,3.17
2018-09-10T02:11:19.619Z,3.47
2018-09-10T02:13:48.705Z,3.27
2018-09-10T02:16:18.841Z,3.47
2018-09-10T02:18:48.083Z,3.50
2018-09-10T02:21:17.156Z,3.60
2018-09-10T02:23:46.289Z,3.20
2018-09-10T02:26:15.433Z,3.40
2018-09-10T02:28:44.519Z,3.37
2018-09-10T02:31:13.715Z,3.03
2018-09-10T02:33:42.804Z,3.60
2018-09-10T02:36:11.921Z,3.20
2018-09-10T02:38:41.105Z,3.47
2018-09-10T02:41:10.271Z,4.10
2018-09-10T02:43:39.517Z,3.33
2018-09-10T02:46:08.718Z,3.73
2018-09-10T02:48:37.931Z,3.50
2018-09-10T02:51:13.688Z,3.13
2018-09-10T02:53:42.912Z,3.60
2018-09-10T02:56:13.038Z,3.57
2018-09-10T02:58:42.257Z,3.30
2018-09-10T03:01:11.453Z,3.70
2018-09-10T03:03:40.686Z,3.73
2018-09-10T03:06:09.889Z,3.47
2018-09-10T03:08:39.058Z,3.63
2018-09-10T03:11:08.085Z,3.60
2018-09-10T03:13:37.192Z,3.07
2018-09-10T03:16:06.335Z,2.80
2018-09-10T03:18:35.469Z,3.50
2018-09-10T03:21:04.567Z,3.50
2018-09-10T03:23:33.680Z,3.50
2018-09-10T03:26:03.414Z,3.73
2018-09-10T03:28:32.509Z,3.80
2018-09-10T03:31:01.920Z,3.80
2018-09-10T03:33:31.005Z,3.90
2018-09-10T03:36:00.174Z,3.27
2018-09-10T03:38:30.230Z,3.23
2018-09-10T03:40:59.331Z,5.00
2018-09-10T03:43:28.418Z,4.90
2018-09-10T03:45:57.492Z,3.60
2018-09-10T03:48:26.658Z,3.20
2018-09-10T03:50:55.729Z,3.43
2018-09-10T03:53:24.796Z,3.70
2018-09-10T03:55:54.079Z,3.50
2018-09-10T03:58:23.410Z,3.77
2018-09-10T04:00:52.539Z,3.80
2018-09-10T04:03:21.681Z,4.23
2018-09-10T04:05:51.332Z,3.90
2018-09-10T04:08:21.209Z,3.97
2018-09-10T04:10:51.020Z,4.40
2018-09-10T04:13:20.290Z,3.90
2018-09-10T04:15:49.635Z,4.03
2018-09-10T04:18:18.770Z,3.40
2018-09-10T04:20:47.888Z,3.70
2018-09-10T04:23:17.002Z,4.27
2018-09-10T04:25:46.160Z,3.83
2018-09-10T04:28:15.287Z,4.63
2018-09-10T04:30:44.418Z,4.60
2018-09-10T04:33:13.506Z,4.30
2018-09-10T04:35:42.694Z,3.80
2018-09-10T04:38:11.780Z,4.13
2018-09-10T04:40:40.999Z,4.30
2018-09-10T04:43:10.105Z,4.10
2018-09-10T04:45:39.210Z,4.43
2018-09-10T04:48:08.355Z,4.17
2018-09-10T04:50:37.612Z,4.40
2018-09-10T04:53:06.742Z,4.00
2018-09-10T04:55:35.944Z,4.63
2018-09-10T04:58:05.045Z,4.23
2018-09-10T05:00:34.318Z,3.97
2018-09-10T05:03:03.638Z,4.20
2018-09-10T05:05:32.817Z,4.50
2018-09-10T05:08:02.232Z,6.20
2018-09-10T05:10:31.591Z,7.47
2018-09-10T05:13:00.875Z,5.73
2018-09-10T05:15:31.243Z,7.63
2018-09-10T05:18:00.865Z,7.80
2018-09-10T05:20:30.029Z,8.40
2018-09-10T05:22:59.267Z,9.30
2018-09-10T05:25:29.479Z,9.17
2018-09-10T05:27:58.675Z,8.50
2018-09-10T05:30:27.740Z,8.40
2018-09-10T05:32:57.010Z,7.57
2018-09-10T05:35:26.152Z,6.50
2018-09-10T05:37:55.803Z,6.57
2018-09-10T05:40:24.962Z,6.10
2018-09-10T05:42:54.114Z,5.50
2018-09-10T05:45:23.259Z,5.33
2018-09-10T05:47:52.374Z,5.30
2018-09-10T05:50:21.986Z,4.90
2018-09-10T05:52:51.077Z,5.47
2018-09-10T05:55:20.289Z,4.73
2018-09-10T05:57:49.541Z,5.70
2018-09-10T06:00:18.767Z,4.97
2018-09-10T06:02:47.969Z,4.87
2018-09-10T06:05:17.347Z,6.03
2018-09-10T06:07:46.485Z,6.00
2018-09-10T06:10:15.686Z,5.37
2018-09-10T06:12:44.729Z,4.80
2018-09-10T06:15:13.874Z,4.97
2018-09-10T06:17:43.277Z,4.60
2018-09-10T06:20:12.652Z,5.50
2018-09-10T06:22:41.892Z,5.00
2018-09-10T06:25:11.132Z,4.67
2018-09-10T06:27:40.238Z,4.67
2018-09-10T06:30:09.439Z,5.43
2018-09-10T06:32:38.540Z,4.80
2018-09-10T06:35:07.659Z,6.10
2018-09-10T06:37:36.876Z,5.60
2018-09-10T06:40:06.368Z,5.40
2018-09-10T06:42:35.454Z,5.63
2018-09-10T06:45:06.821Z,5.70
2018-09-10T06:47:36.016Z,6.20
2018-09-10T06:50:05.166Z,4.90
2018-09-10T06:52:34.329Z,4.73
2018-09-10T06:55:03.448Z,4.87
2018-09-10T06:57:32.919Z,4.33
2018-09-10T07:00:02.345Z,4.63
2018-09-10T07:02:31.852Z,4.63
2018-09-10T07:05:01.316Z,4.20
2018-09-10T07:07:30.394Z,4.80
2018-09-10T07:09:59.519Z,5.00
2018-09-10T07:12:28.728Z,4.17
2018-09-10T07:14:58.001Z,4.27
2018-09-10T07:17:27.396Z,4.10
2018-09-10T07:19:56.650Z,5.10
2018-09-10T07:22:26.094Z,4.40
2018-09-10T07:24:55.450Z,4.60
2018-09-10T07:27:24.753Z,5.20
2018-09-10T07:29:54.464Z,4.90
2018-09-10T07:32:23.722Z,4.60
2018-09-10T07:34:53.779Z,4.60
2018-09-10T07:37:24.146Z,5.33
2018-09-10T07:39:54.007Z,5.70
2018-09-10T07:42:23.585Z,8.07
2018-09-10T07:44:52.719Z,6.00
2018-09-10T07:47:21.838Z,9.00
2018-09-10T07:49:51.078Z,6.00
2018-09-10T07:52:20.576Z,5.83
2018-09-10T07:54:49.783Z,6.00
2018-09-10T07:57:18.888Z,6.30
2018-09-10T07:59:48.132Z,5.73
2018-09-10T08:02:17.325Z,6.30
2018-09-10T08:04:46.479Z,5.90
2018-09-10T08:07:15.668Z,6.57
2018-09-10T08:09:44.820Z,6.50
2018-09-10T08:12:13.940Z,6.60
2018-09-10T08:14:43.272Z,6.90
2018-09-10T08:17:12.478Z,6.83
2018-09-10T08:19:41.588Z,6.73
2018-09-10T08:22:10.669Z,7.37
2018-09-10T08:24:39.746Z,7.00
2018-09-10T08:27:08.940Z,8.00
2018-09-10T08:29:38.589Z,7.17
2018-09-10T08:32:07.849Z,7.50
2018-09-10T08:34:37.006Z,8.27
2018-09-10T08:37:06.596Z,6.83
2018-09-10T08:39:35.929Z,7.67
2018-09-10T08:42:05.395Z,7.30
2018-09-10T08:44:34.919Z,6.60
2018-09-10T08:47:04.516Z,7.40
2018-09-10T08:49:33.668Z,7.97
2018-09-10T08:52:02.808Z,8.20
2018-09-10T08:54:32.328Z,8.50
2018-09-10T08:57:01.214Z,7.07
2018-09-10T08:59:30.285Z,8.00
2018-09-10T09:01:59.551Z,8.13
2018-09-10T09:04:28.709Z,8.60
2018-09-10T09:06:57.806Z,8.30
2018-09-10T09:09:26.958Z,7.03
2018-09-10T09:11:56.086Z,8.97
2018-09-10T09:14:25.284Z,7.77
2018-09-10T09:16:54.466Z,7.23
2018-09-10T09:19:23.680Z,8.67
2018-09-10T09:21:52.869Z,8.63
2018-09-10T09:24:21.993Z,7.27
2018-09-10T09:26:51.274Z,7.40
2018-09-10T09:29:21.496Z,7.70
2018-09-10T09:31:53.367Z,6.70
2018-09-10T09:34:22.896Z,7.77
2018-09-10T09:36:57.429Z,6.67
2018-09-10T09:39:31.893Z,8.00
2018-09-10T09:42:06.399Z,6.93
2018-09-10T09:44:40.825Z,7.07
2018-09-10T09:47:10.051Z,6.13
2018-09-10T09:49:39.483Z,6.70
2018-09-10T09:52:08.682Z,6.73
2018-09-10T09:54:38.134Z,6.00
2018-09-10T09:57:07.756Z,7.97
2018-09-10T09:59:36.841Z,6.00
2018-09-10T10:02:11.542Z,6.03
2018-09-10T10:04:40.806Z,7.07
2018-09-10T10:07:10.129Z,6.83
2018-09-10T10:09:39.381Z,6.57
2018-09-10T10:12:08.670Z,6.53
2018-09-10T10:14:37.844Z,7.60
2018-09-10T10:17:07.649Z,7.50
2018-09-10T10:19:36.789Z,9.00
2018-09-10T10:22:06.183Z,8.47
2018-09-10T10:24:35.356Z,8.90
2018-09-10T10:27:04.893Z,9.90
2018-09-10T10:29:34.165Z,9.23
2018-09-10T10:32:03.461Z,9.40
2018-09-10T10:34:32.640Z,8.70
2018-09-10T10:37:01.865Z,9.03
2018-09-10T10:39:31.067Z,9.03
2018-09-10T10:42:00.260Z,9.40
2018-09-10T10:44:30.444Z,8.20
2018-09-10T10:46:59.597Z,9.30
2018-09-10T10:49:28.939Z,7.73
2018-09-10T10:51:58.344Z,7.33
2018-09-10T10:54:27.577Z,6.63
2018-09-10T10:56:56.786Z,6.70
2018-09-10T10:59:26.778Z,7.10
2018-09-10T11:01:56.130Z,7.20
2018-09-10T11:04:25.261Z,7.50
2018-09-10T11:06:54.438Z,7.00
2018-09-10T11:09:23.811Z,5.83
2018-09-10T11:11:52.893Z,6.10
2018-09-10T11:14:22.153Z,5.27
2018-09-10T11:16:51.461Z,4.80
2018-09-10T11:19:20.742Z,3.97
2018-09-10T11:21:49.854Z,3.80
2018-09-10T11:24:20.239Z,4.30
2018-09-10T11:26:49.587Z,3.63
2018-09-10T11:29:19.153Z,4.03
2018-09-10T11:31:48.405Z,4.27
2018-09-10T11:34:17.636Z,3.50
2018-09-10T11:36:46.856Z,3.27
2018-09-10T11:39:16.102Z,3.73
2018-09-10T11:41:46.545Z,3.93
2018-09-10T11:44:15.895Z,3.70
2018-09-10T11:46:45.020Z,3.27
2018-09-10T11:49:14.242Z,2.97
2018-09-10T11:51:43.765Z,2.70
2018-09-10T11:54:13.161Z,3.50
2018-09-10T11:56:42.368Z,3.70
2018-09-10T11:59:11.685Z,2.63
2018-09-10T12:01:41.180Z,2.70
2018-09-10T12:04:10.468Z,2.40
2018-09-10T12:06:40.772Z,3.00
2018-09-10T12:09:11.059Z,4.10
2018-09-10T12:11:40.599Z,2.83
2018-09-10T12:14:10.031Z,3.27
2018-09-10T12:16:39.656Z,3.17
2018-09-10T12:19:08.943Z,3.07
2018-09-10T12:21:38.353Z,2.60
2018-09-10T12:24:07.445Z,3.40
2018-09-10T12:26:36.732Z,2.97
2018-09-10T12:29:06.109Z,2.83
2018-09-10T12:31:35.236Z,2.60
2018-09-10T12:34:04.391Z,3.10
2018-09-10T12:36:33.641Z,4.67
2018-09-10T12:39:03.669Z,3.10
2018-09-10T12:41:32.856Z,2.63
2018-09-10T12:44:01.993Z,2.73
2018-09-10T12:46:31.155Z,2.63
2018-09-10T12:49:00.377Z,2.60
2018-09-10T12:51:30.349Z,2.60
2018-09-10T12:53:59.516Z,3.17
2018-09-10T12:56:29.050Z,2.67
2018-09-10T12:58:58.257Z,2.87
2018-09-10T13:01:27.391Z,2.60
2018-09-10T13:03:57.190Z,2.77
2018-09-10T13:06:26.510Z,2.43
2018-09-10T13:08:55.834Z,2.87
2018-09-10T13:11:25.600Z,3.27
2018-09-10T13:13:55.681Z,2.67
2018-09-10T13:16:24.863Z,2.50
2018-09-10T13:18:54.104Z,2.73
2018-09-10T13:21:23.498Z,2.87
2018-09-10T13:23:52.943Z,2.57
2018-09-10T13:26:22.171Z,2.67
2018-09-10T13:28:51.543Z,2.57
2018-09-10T13:31:20.837Z,2.47
2018-09-10T13:33:50.020Z,2.90
2018-09-10T13:36:19.330Z,2.53
2018-09-10T13:38:48.663Z,4.43
2018-09-10T13:41:18.156Z,2.93
2018-09-10T13:43:47.525Z,2.87
2018-09-10T13:46:16.640Z,3.13
2018-09-10T13:48:46.013Z,2.63
2018-09-10T13:51:15.308Z,3.07
2018-09-10T13:53:44.570Z,3.00
2018-09-10T13:56:13.708Z,3.60
2018-09-10T13:58:42.929Z,2.50
2018-09-10T14:01:12.033Z,3.10
2018-09-10T14:03:41.205Z,2.73
2018-09-10T14:06:10.485Z,3.00
2018-09-10T14:08:39.634Z,2.60
2018-09-10T14:11:09.510Z,2.30
2018-09-10T14:13:38.712Z,2.80
2018-09-10T14:16:07.965Z,3.00
2018-09-10T14:18:37.278Z,3.27
2018-09-10T14:21:06.428Z,3.23
2018-09-10T14:23:35.562Z,3.00
2018-09-10T14:26:04.941Z,3.90
2018-09-10T14:28:34.323Z,2.60
2018-09-10T14:31:03.608Z,3.10
2018-09-10T14:33:32.736Z,3.10
2018-09-10T14:36:01.989Z,3.20
2018-09-10T14:38:31.227Z,3.37
2018-09-10T14:41:00.583Z,3.40
2018-09-10T14:43:30.407Z,2.90
2018-09-10T14:45:59.581Z,3.90
2018-09-10T14:48:28.765Z,3.07
2018-09-10T14:50:57.960Z,3.20
2018-09-10T14:53:27.152Z,3.10
2018-09-10T14:55:56.397Z,3.30
2018-09-10T14:58:25.736Z,3.20
2018-09-10T15:00:54.958Z,3.67
2018-09-10T15:03:24.063Z,3.43
2018-09-10T15:05:53.357Z,2.87
2018-09-10T15:08:22.487Z,3.17
2018-09-10T15:14:23.065Z,3.12
2018-09-10T15:16:52.372Z,2.90
2018-09-10T15:19:21.527Z,2.83
2018-09-10T15:21:51.059Z,2.90
2018-09-10T15:24:20.183Z,3.73
2018-09-10T15:29:03.666Z,3.00
2018-09-10T15:31:32.863Z,3.10
2018-09-10T15:34:01.930Z,3.13
2018-09-10T15:45:17.973Z,3.60
2018-09-10T15:47:47.242Z,2.90
2018-09-10T15:50:16.403Z,3.23
2018-09-10T15:57:53.830Z,3.65
2018-09-10T16:00:23.024Z,3.33
2018-09-10T16:02:52.240Z,3.20
2018-09-10T16:05:21.377Z,3.33
2018-09-10T16:07:50.595Z,3.57
2018-09-10T16:10:20.747Z,2.87
2018-09-10T16:12:49.849Z,3.63
2018-09-10T16:15:19.128Z,2.63
2018-09-10T16:17:48.246Z,2.73
2018-09-10T16:20:18.077Z,2.33
2018-09-10T16:22:47.446Z,2.50
2018-09-10T16:25:22.794Z,3.50
2018-09-10T16:46:30.856Z,2.85
2018-09-10T16:49:00.063Z,2.30
2018-09-10T16:51:29.191Z,3.00
2018-09-10T16:53:58.335Z,3.77
2018-09-10T16:56:27.564Z,2.37
2018-09-10T16:58:56.724Z,2.33
2018-09-10T17:01:26.166Z,2.20
2018-09-10T17:03:55.479Z,2.73
2018-09-10T17:06:24.714Z,2.03
2018-09-10T17:08:53.918Z,3.13
2018-09-10T17:11:23.465Z,2.60
2018-09-10T17:13:52.718Z,2.63
2018-09-10T17:16:22.083Z,2.77
2018-09-10T17:18:51.243Z,2.40
2018-09-10T17:21:20.545Z,2.40
2018-09-10T17:23:49.682Z,2.80
2018-09-10T17:26:18.807Z,2.53
2018-09-10T17:28:48.018Z,2.90
2018-09-10T17:31:17.181Z,2.67
2018-09-10T17:33:46.356Z,2.03
2018-09-10T17:36:16.537Z,2.47
2018-09-10T17:38:45.827Z,4.07
2018-09-10T17:41:15.038Z,2.70
2018-09-10T17:43:44.292Z,3.83
2018-09-10T17:46:13.884Z,3.80
2018-09-10T17:48:43.096Z,3.33
2018-09-10T17:51:12.253Z,2.83
2018-09-10T17:53:41.467Z,4.00
2018-09-10T17:56:10.992Z,2.60
2018-09-10T17:58:40.244Z,3.63
2018-09-10T18:01:09.360Z,2.57
2018-09-10T18:03:38.476Z,2.73
2018-09-10T18:06:12.625Z,3.53
2018-09-10T18:08:42.351Z,2.57
2018-09-10T18:11:11.666Z,3.40
2018-09-10T18:13:40.953Z,3.00
2018-09-10T18:16:10.171Z,2.60
2018-09-10T18:18:39.313Z,3.23
2018-09-10T18:21:08.489Z,2.80
2018-09-10T18:23:37.709Z,3.77
2018-09-10T18:26:07.902Z,3.00
2018-09-10T18:28:37.057Z,2.40
2018-09-10T18:31:06.315Z,3.00
2018-09-10T18:33:35.558Z,2.80
2018-09-10T18:36:04.742Z,2.93
2018-09-10T18:38:34.270Z,3.50
2018-09-10T18:41:03.653Z,3.40
2018-09-10T18:43:32.813Z,3.63
2018-09-10T18:46:02.897Z,3.50
2018-09-10T18:48:31.988Z,3.03
2018-09-10T18:51:01.164Z,3.20
2018-09-10T18:53:30.620Z,3.50
2018-09-10T18:55:59.921Z,4.10
2018-09-10T18:58:29.053Z,3.70
2018-09-10T19:00:58.763Z,3.40
2018-09-10T19:03:27.868Z,3.80
2018-09-10T19:05:57.334Z,4.27
2018-09-10T19:08:27.245Z,4.50
2018-09-10T19:10:56.502Z,4.07
2018-09-10T19:13:26.005Z,4.43
2018-09-10T19:15:55.229Z,4.17
2018-09-10T19:18:28.473Z,4.30
2018-09-10T19:20:58.116Z,3.50
2018-09-10T19:23:27.358Z,4.20
2018-09-10T19:25:57.012Z,3.70
2018-09-10T19:28:27.161Z,3.83
2018-09-10T19:30:56.765Z,3.37
2018-09-10T19:33:26.214Z,4.00
2018-09-10T19:35:56.121Z,3.93
2018-09-10T19:38:25.528Z,3.43
2018-09-10T19:40:55.198Z,3.63
2018-09-10T19:43:27.333Z,3.37
2018-09-10T19:45:56.626Z,4.23
2018-09-10T19:48:25.725Z,3.90
2018-09-10T19:50:54.901Z,4.30
2018-09-10T19:53:24.100Z,3.90
2018-09-10T19:55:53.250Z,3.90
2018-09-10T19:58:22.739Z,3.90
2018-09-10T20:00:52.357Z,3.60
2018-09-10T20:03:21.614Z,4.67
2018-09-10T20:05:50.992Z,3.67
2018-09-10T20:08:20.172Z,3.07
2018-09-10T20:10:49.245Z,3.83
2018-09-10T20:13:18.342Z,3.70
2018-09-10T20:15:47.515Z,3.87
2018-09-10T20:18:16.849Z,3.30
2018-09-10T20:20:45.935Z,3.40
2018-09-10T20:23:15.636Z,3.80
2018-09-10T20:25:44.819Z,4.07
2018-09-10T20:28:14.105Z,4.17
2018-09-10T20:30:43.632Z,3.73
2018-09-10T20:33:12.740Z,3.80
2018-09-10T20:35:42.073Z,3.40
2018-09-10T20:38:11.402Z,4.10
2018-09-10T20:40:40.878Z,3.50
2018-09-10T20:43:10.501Z,3.80
2018-09-10T20:45:39.753Z,4.50
2018-09-10T20:48:10.218Z,2.93
2018-09-10T20:50:40.450Z,3.60
2018-09-10T20:53:09.866Z,4.83
2018-09-10T20:55:39.062Z,4.90
2018-09-10T20:58:08.192Z,4.67
2018-09-10T21:00:37.374Z,3.93
2018-09-10T21:03:06.933Z,4.03
2018-09-10T21:05:36.125Z,3.80
2018-09-10T21:08:05.701Z,3.77
2018-09-10T21:10:34.811Z,3.93
2018-09-10T21:13:04.109Z,3.97
2018-09-10T21:15:33.285Z,4.37
2018-09-10T21:18:02.408Z,4.83
2018-09-10T21:20:31.537Z,4.57
2018-09-10T21:23:00.836Z,4.47
2018-09-10T21:25:30.090Z,3.93
2018-09-10T21:27:59.214Z,4.13
2018-09-10T21:30:28.366Z,4.33
2018-09-10T21:32:58.061Z,3.60
2018-09-10T21:35:27.162Z,4.00
2018-09-10T21:37:56.973Z,4.37
2018-09-10T21:40:26.199Z,4.20
2018-09-10T21:42:55.408Z,5.13
2018-09-10T21:45:24.660Z,4.07
2018-09-10T21:47:53.972Z,3.50
2018-09-10T21:50:23.385Z,4.13
2018-09-10T21:52:52.455Z,3.87
2018-09-10T21:55:21.995Z,4.47
2018-09-10T21:57:51.893Z,4.30
2018-09-10T22:00:21.051Z,4.17
2018-09-10T22:02:50.152Z,4.63
2018-09-10T22:05:19.407Z,4.20
2018-09-10T22:07:48.537Z,4.50
2018-09-10T22:10:17.696Z,3.60
2018-09-10T22:12:48.870Z,3.33
2018-09-10T22:15:18.025Z,4.13
2018-09-10T22:17:47.203Z,4.60
2018-09-10T22:20:16.261Z,4.90
2018-09-10T22:22:45.472Z,4.17
2018-09-10T22:25:14.541Z,5.00
2018-09-10T22:27:43.569Z,3.73
2018-09-10T22:30:12.754Z,4.10
2018-09-10T22:32:41.804Z,4.17
2018-09-10T22:35:10.909Z,4.30
2018-09-10T22:37:40.140Z,4.17
2018-09-10T22:40:09.285Z,3.40
2018-09-10T22:42:38.537Z,4.83
2018-09-10T22:45:07.665Z,3.67
2018-09-10T22:47:36.800Z,4.27
2018-09-10T22:50:05.929Z,3.33
2018-09-10T22:52:35.024Z,2.80
2018-09-10T22:55:04.196Z,3.07
2018-09-10T22:57:33.397Z,3.30
2018-09-10T23:00:02.657Z,3.27
2018-09-10T23:02:31.884Z,3.00
2018-09-10T23:05:01.007Z,3.03
2018-09-10T23:07:30.172Z,3.00
2018-09-10T23:09:59.240Z,2.80
2018-09-10T23:12:28.318Z,3.30
2018-09-10T23:14:57.382Z,2.90
2018-09-10T23:17:26.643Z,2.93
2018-09-10T23:19:55.722Z,3.20
2018-09-10T23:22:24.860Z,2.80
2018-09-10T23:24:53.940Z,2.80
2018-09-10T23:27:23.108Z,2.33
2018-09-10T23:29:53.359Z,3.50
2018-09-10T23:32:23.039Z,1.97
2018-09-10T23:34:52.116Z,2.10
2018-09-10T23:37:21.176Z,3.17
2018-09-10T23:39:50.319Z,2.53
2018-09-10T23:42:19.395Z,2.60
2018-09-10T23:44:48.494Z,3.27
2018-09-10T23:47:17.580Z,2.67
2018-09-10T23:49:46.649Z,2.47
2018-09-10T23:52:15.765Z,4.50
2018-09-10T23:54:44.884Z,2.70
2018-09-10T23:57:14.013Z,2.80
2018-09-10T23:59:43.137Z,2.83
